createdAt,value
2022-11-16T00:02:12.976Z,3.05
2022-11-16T00:04:39.658Z,2.99
2022-11-16T00:07:06.422Z,3.00
2022-11-16T00:09:33.298Z,2.69
2022-11-16T00:12:02.077Z,2.14
2022-11-16T00:14:30.991Z,2.17
2022-11-16T00:16:57.896Z,2.48
2022-11-16T00:19:24.944Z,2.68
2022-11-16T00:21:52.055Z,2.84
2022-11-16T00:24:19.692Z,2.88
2022-11-16T00:26:46.473Z,2.48
2022-11-16T00:29:20.833Z,2.33
2022-11-16T00:31:47.676Z,2.09
2022-11-16T00:34:14.408Z,2.16
2022-11-16T00:36:41.030Z,1.94
2022-11-16T00:39:07.714Z,1.89
2022-11-16T00:41:34.466Z,2.14
2022-11-16T00:44:01.128Z,2.18
2022-11-16T00:46:27.740Z,2.63
2022-11-16T00:48:54.387Z,2.61
2022-11-16T00:51:21.028Z,2.79
2022-11-16T00:53:47.789Z,2.95
2022-11-16T00:56:14.369Z,3.17
2022-11-16T00:58:40.970Z,3.52
2022-11-16T01:01:08.678Z,3.19
2022-11-16T01:03:36.122Z,2.89
2022-11-16T01:06:07.151Z,3.17
2022-11-16T01:08:33.996Z,3.24
2022-11-16T01:11:20.798Z,3.26
2022-11-16T01:13:47.979Z,3.69
2022-11-16T01:16:16.289Z,3.85
2022-11-16T01:18:44.004Z,3.94
2022-11-16T01:21:10.745Z,4.05
2022-11-16T01:23:37.465Z,4.28
2022-11-16T01:26:04.212Z,4.26
2022-11-16T01:28:31.360Z,4.25
2022-11-16T01:30:58.265Z,4.54
2022-11-16T01:33:24.902Z,4.12
2022-11-16T01:35:51.500Z,3.62
2022-11-16T01:38:18.287Z,3.65
2022-11-16T01:40:44.830Z,3.83
2022-11-16T01:43:18.175Z,3.61
2022-11-16T01:45:45.032Z,3.62
2022-11-16T01:48:16.599Z,3.56
2022-11-16T01:50:43.475Z,3.51
2022-11-16T01:53:10.179Z,3.39
2022-11-16T01:55:36.900Z,3.23
2022-11-16T01:58:03.831Z,3.54
2022-11-16T02:00:30.482Z,3.17
2022-11-16T02:02:57.129Z,3.33
2022-11-16T02:05:30.770Z,3.61
2022-11-16T02:08:43.402Z,3.33
2022-11-16T02:11:28.304Z,3.24
2022-11-16T02:14:16.245Z,3.08
2022-11-16T02:16:53.377Z,3.12
2022-11-16T02:19:23.128Z,3.61
2022-11-16T02:22:11.851Z,3.67
2022-11-16T02:24:50.387Z,4.01
2022-11-16T02:27:34.222Z,4.47
2022-11-16T02:30:00.920Z,4.63
2022-11-16T02:32:31.465Z,4.77
2022-11-16T02:35:17.529Z,4.90
2022-11-16T02:37:47.946Z,4.76
2022-11-16T02:40:15.414Z,4.69
2022-11-16T02:42:54.734Z,4.45
2022-11-16T02:45:23.703Z,4.36
2022-11-16T02:47:50.828Z,4.37
2022-11-16T02:50:18.999Z,4.42
2022-11-16T02:52:45.639Z,4.29
2022-11-16T02:55:12.426Z,4.31
2022-11-16T02:58:09.819Z,4.04
2022-11-16T03:00:46.675Z,4.15
2022-11-16T03:03:16.558Z,4.29
2022-11-16T03:05:59.629Z,4.39
2022-11-16T03:08:29.729Z,4.45
2022-11-16T03:11:20.757Z,4.55
2022-11-16T03:13:47.439Z,4.74
2022-11-16T03:16:27.854Z,4.86
2022-11-16T03:18:55.002Z,4.92
2022-11-16T03:21:36.858Z,5.09
2022-11-16T03:24:04.033Z,4.98
2022-11-16T03:26:34.047Z,4.84
2022-11-16T03:29:02.836Z,4.90
2022-11-16T03:31:31.736Z,4.90
2022-11-16T03:34:00.779Z,5.18
2022-11-16T03:36:32.557Z,5.16
2022-11-16T03:39:08.801Z,4.87
2022-11-16T03:41:35.871Z,4.97
2022-11-16T03:44:02.475Z,5.13
2022-11-16T03:46:29.119Z,5.15
2022-11-16T03:48:59.401Z,5.21
2022-11-16T03:51:26.133Z,5.10
2022-11-16T03:53:52.806Z,4.92
2022-11-16T03:56:19.586Z,4.69
2022-11-16T03:58:46.258Z,4.85
2022-11-16T04:01:12.980Z,4.63
2022-11-16T04:03:39.647Z,4.68
2022-11-16T04:06:25.200Z,4.86
2022-11-16T04:09:29.587Z,4.71
2022-11-16T04:12:14.524Z,4.50
2022-11-16T04:14:59.683Z,4.29
2022-11-16T04:17:44.849Z,4.28
2022-11-16T04:20:31.029Z,4.42
2022-11-16T04:23:24.736Z,4.42
2022-11-16T04:25:51.462Z,4.42
2022-11-16T04:28:19.944Z,3.96
2022-11-16T04:31:09.699Z,3.90
2022-11-16T04:33:55.084Z,3.88
2022-11-16T04:36:40.242Z,3.76
2022-11-16T04:39:06.991Z,3.67
2022-11-16T04:41:52.407Z,3.55
2022-11-16T04:44:19.133Z,4.36
2022-11-16T04:47:04.561Z,4.40
2022-11-16T04:49:31.228Z,4.54
2022-11-16T04:51:57.971Z,4.27
2022-11-16T04:54:24.570Z,4.30
2022-11-16T04:56:51.147Z,4.53
2022-11-16T04:59:17.912Z,4.52
2022-11-16T05:02:03.064Z,4.58
2022-11-16T05:04:29.681Z,4.51
2022-11-16T05:06:56.396Z,4.42
2022-11-16T05:09:23.101Z,4.49
2022-11-16T05:11:49.731Z,4.44
2022-11-16T05:14:16.345Z,4.52
2022-11-16T05:16:42.955Z,4.64
2022-11-16T05:19:28.097Z,4.64
2022-11-16T05:21:54.766Z,4.81
2022-11-16T05:24:36.424Z,4.90
2022-11-16T05:27:10.950Z,5.02
2022-11-16T05:29:37.665Z,5.03
2022-11-16T05:32:05.227Z,5.13
2022-11-16T05:34:31.809Z,5.25
2022-11-16T05:36:58.674Z,5.34
2022-11-16T05:39:25.730Z,5.52
2022-11-16T05:41:52.423Z,5.74
2022-11-16T05:44:19.137Z,5.84
2022-11-16T05:46:45.889Z,6.05
2022-11-16T05:49:13.878Z,6.00
2022-11-16T05:51:41.393Z,6.09
2022-11-16T05:54:08.152Z,6.04
2022-11-16T05:56:35.022Z,6.18
2022-11-16T05:59:01.777Z,6.36
2022-11-16T06:01:28.473Z,6.14
2022-11-16T06:03:55.207Z,6.10
2022-11-16T06:06:21.799Z,6.13
2022-11-16T06:08:48.477Z,6.19
2022-11-16T06:11:15.193Z,6.04
2022-11-16T06:13:41.861Z,6.22
2022-11-16T06:16:08.518Z,6.12
2022-11-16T06:18:42.119Z,6.22
2022-11-16T06:21:08.919Z,6.32
2022-11-16T06:23:35.636Z,6.45
2022-11-16T06:26:02.675Z,6.44
2022-11-16T06:28:29.284Z,6.65
2022-11-16T06:30:55.975Z,6.73
2022-11-16T06:33:22.831Z,6.61
2022-11-16T06:35:49.525Z,6.81
2022-11-16T06:38:18.796Z,6.90
2022-11-16T06:40:56.262Z,6.95
2022-11-16T06:43:22.994Z,6.98
2022-11-16T06:45:50.768Z,7.25
2022-11-16T06:48:17.900Z,7.02
2022-11-16T06:50:44.804Z,7.09
2022-11-16T06:55:55.579Z,7.03
2022-11-16T06:58:22.171Z,7.14
2022-11-16T07:00:48.774Z,7.33
2022-11-16T07:03:15.535Z,7.23
2022-11-16T07:05:42.280Z,7.26
2022-11-16T07:08:09.094Z,7.45
2022-11-16T07:10:36.667Z,7.49
2022-11-16T07:13:03.719Z,7.62
2022-11-16T07:15:30.819Z,7.61
2022-11-16T07:17:57.658Z,7.75
2022-11-16T07:20:24.360Z,7.69
2022-11-16T07:22:51.035Z,7.71
2022-11-16T07:25:17.603Z,7.68
2022-11-16T07:27:44.320Z,7.74
2022-11-16T07:30:11.586Z,8.05
2022-11-16T07:32:39.975Z,8.00
2022-11-16T07:35:06.966Z,8.14
2022-11-16T07:37:33.561Z,8.20
2022-11-16T07:40:00.268Z,8.25
2022-11-16T07:42:26.931Z,8.26
2022-11-16T07:44:53.571Z,8.29
2022-11-16T07:47:20.182Z,8.55
2022-11-16T07:49:48.882Z,8.76
2022-11-16T07:52:15.513Z,8.58
2022-11-16T07:54:42.492Z,8.70
2022-11-16T07:57:09.106Z,8.65
2022-11-16T07:59:35.740Z,8.69
2022-11-16T08:02:02.559Z,8.89
2022-11-16T08:04:29.196Z,8.90
2022-11-16T08:06:55.897Z,8.98
2022-11-16T08:09:22.588Z,9.00
2022-11-16T08:11:51.006Z,9.12
2022-11-16T08:14:19.278Z,9.21
2022-11-16T08:16:46.039Z,9.41
2022-11-16T08:19:12.807Z,9.56
2022-11-16T08:21:39.495Z,9.34
2022-11-16T08:24:06.354Z,9.23
2022-11-16T08:26:32.960Z,9.21
2022-11-16T08:28:59.608Z,9.68
2022-11-16T08:31:27.605Z,9.84
2022-11-16T08:33:54.464Z,10.29
2022-11-16T08:36:21.341Z,10.41
2022-11-16T08:38:48.666Z,10.92
2022-11-16T08:41:15.709Z,10.69
2022-11-16T08:43:42.579Z,10.18
2022-11-16T08:46:09.711Z,10.36
2022-11-16T08:48:36.994Z,10.82
2022-11-16T08:53:58.086Z,10.59
2022-11-16T08:56:27.159Z,11.03
2022-11-16T08:58:58.453Z,10.66
2022-11-16T09:01:26.984Z,11.11
2022-11-16T09:03:54.033Z,11.37
2022-11-16T09:06:20.823Z,11.60
2022-11-16T09:08:48.176Z,11.59
2022-11-16T09:11:17.834Z,11.48
2022-11-16T09:13:45.047Z,11.53
2022-11-16T09:16:11.854Z,11.47
2022-11-16T09:18:38.708Z,11.98
2022-11-16T09:21:05.374Z,12.05
2022-11-16T09:23:32.017Z,12.12
2022-11-16T09:26:01.989Z,12.35
2022-11-16T09:28:28.691Z,12.62
2022-11-16T09:31:06.051Z,12.54
2022-11-16T09:33:33.934Z,12.67
2022-11-16T09:36:07.154Z,12.74
2022-11-16T09:39:18.987Z,12.69
2022-11-16T09:41:52.535Z,12.31
2022-11-16T09:44:31.191Z,12.96
2022-11-16T09:46:58.655Z,12.95
2022-11-16T09:49:29.044Z,12.81
2022-11-16T09:51:57.930Z,13.18
2022-11-16T09:54:26.211Z,13.05
2022-11-16T09:56:54.496Z,13.32
2022-11-16T09:59:25.685Z,13.16
2022-11-16T10:02:14.687Z,13.14
2022-11-16T10:05:20.198Z,13.00
2022-11-16T10:07:51.654Z,13.43
2022-11-16T10:10:34.960Z,13.59
2022-11-16T10:13:24.017Z,13.22
2022-11-16T10:16:18.824Z,13.32
2022-11-16T10:18:54.459Z,12.83
2022-11-16T10:21:28.738Z,13.03
2022-11-16T10:23:58.784Z,13.29
2022-11-16T10:26:43.271Z,13.64
2022-11-16T10:29:34.861Z,13.39
2022-11-16T10:32:13.677Z,13.49
2022-11-16T10:35:16.738Z,13.58
2022-11-16T10:37:50.013Z,13.67
2022-11-16T10:40:19.862Z,13.63
2022-11-16T10:43:09.669Z,13.39
2022-11-16T10:45:47.738Z,12.65
2022-11-16T10:48:25.544Z,12.85
2022-11-16T10:50:52.153Z,12.75
2022-11-16T10:53:34.362Z,12.50
2022-11-16T10:56:17.522Z,12.31
2022-11-16T10:59:04.481Z,12.53
2022-11-16T11:01:34.055Z,12.59
2022-11-16T11:04:33.394Z,12.45
2022-11-16T11:07:01.658Z,12.60
2022-11-16T11:09:32.085Z,12.52
2022-11-16T11:12:17.687Z,12.32
2022-11-16T11:15:06.924Z,12.53
2022-11-16T11:17:34.746Z,12.66
2022-11-16T11:20:27.721Z,12.58
2022-11-16T11:22:56.076Z,12.64
2022-11-16T11:25:29.506Z,12.55
2022-11-16T11:28:31.772Z,12.80
2022-11-16T11:31:02.097Z,12.94
2022-11-16T11:33:33.976Z,13.00
2022-11-16T11:36:20.964Z,12.95
2022-11-16T11:42:04.898Z,13.25
2022-11-16T11:44:52.041Z,13.43
2022-11-16T11:50:21.189Z,13.02
2022-11-16T11:53:02.326Z,12.93
2022-11-16T11:55:29.141Z,12.67
2022-11-16T11:57:55.848Z,12.73
2022-11-16T12:00:23.789Z,12.28
2022-11-16T12:03:12.574Z,12.53
2022-11-16T12:05:51.437Z,12.26
2022-11-16T12:08:36.033Z,12.33
2022-11-16T12:11:02.406Z,12.35
2022-11-16T12:13:41.218Z,12.27
2022-11-16T12:16:32.314Z,12.35
2022-11-16T12:19:03.056Z,12.43
2022-11-16T12:21:35.659Z,12.51
2022-11-16T12:24:11.327Z,12.62
2022-11-16T12:27:01.658Z,12.66
2022-11-16T12:30:06.763Z,12.82
2022-11-16T12:32:48.519Z,13.02
2022-11-16T12:35:21.119Z,13.36
2022-11-16T12:38:14.090Z,13.66
2022-11-16T12:41:02.477Z,13.63
2022-11-16T12:43:36.637Z,13.44
2022-11-16T12:46:39.938Z,12.91
2022-11-16T12:49:22.742Z,12.96
2022-11-16T12:51:58.590Z,13.27
2022-11-16T12:54:25.054Z,13.33
2022-11-16T12:57:00.659Z,13.40
2022-11-16T13:00:18.539Z,13.42
2022-11-16T13:03:02.443Z,13.08
2022-11-16T13:05:54.825Z,13.38
2022-11-16T13:08:42.079Z,13.44
2022-11-16T13:11:27.444Z,13.53
2022-11-16T13:14:00.987Z,13.28
2022-11-16T13:16:28.602Z,13.60
2022-11-16T13:18:55.482Z,13.54
2022-11-16T13:21:45.098Z,13.72
2022-11-16T13:24:23.571Z,13.88
2022-11-16T13:27:10.365Z,13.65
2022-11-16T13:29:44.471Z,13.47
2022-11-16T13:32:25.246Z,13.28
2022-11-16T13:34:51.863Z,13.61
2022-11-16T13:37:36.913Z,13.12
2022-11-16T13:40:04.485Z,13.14
2022-11-16T13:42:32.878Z,13.17
2022-11-16T13:45:07.657Z,13.33
2022-11-16T13:47:34.387Z,13.08
2022-11-16T13:50:02.474Z,13.19
2022-11-16T13:53:46.187Z,13.19
2022-11-16T13:55:43.548Z,12.84
2022-11-16T13:58:11.713Z,12.85
2022-11-16T14:00:41.484Z,12.78
2022-11-16T14:03:17.179Z,12.94
2022-11-16T14:05:45.473Z,13.34
2022-11-16T14:08:24.278Z,13.41
2022-11-16T14:10:50.797Z,12.93
2022-11-16T14:13:42.373Z,12.87
2022-11-16T14:16:18.010Z,12.81
2022-11-16T14:18:48.019Z,12.85
2022-11-16T14:21:21.886Z,12.94
2022-11-16T14:24:09.996Z,12.77
2022-11-16T14:26:55.125Z,12.90
2022-11-16T14:29:27.850Z,13.27
2022-11-16T14:31:56.774Z,13.15
2022-11-16T14:34:33.502Z,12.90
2022-11-16T14:37:00.404Z,13.01
2022-11-16T14:39:41.110Z,12.90
2022-11-16T14:42:15.194Z,12.94
2022-11-16T14:44:41.799Z,12.87
2022-11-16T14:47:25.874Z,12.75
2022-11-16T14:49:53.214Z,12.60
2022-11-16T14:52:28.517Z,12.59
2022-11-16T14:54:57.172Z,12.54
2022-11-16T14:57:23.976Z,12.33
2022-11-16T15:00:12.482Z,12.25
2022-11-16T15:02:39.464Z,12.03
2022-11-16T15:05:06.260Z,12.08
2022-11-16T15:07:32.965Z,11.91
2022-11-16T15:09:59.671Z,12.07
2022-11-16T15:12:42.295Z,11.90
2022-11-16T15:15:12.021Z,12.18
2022-11-16T15:17:39.894Z,12.17
2022-11-16T15:20:21.056Z,12.17
2022-11-16T15:22:50.584Z,11.98
2022-11-16T15:25:34.542Z,11.60
2022-11-16T15:28:15.568Z,11.79
2022-11-16T15:30:42.224Z,11.88
2022-11-16T15:33:16.844Z,11.90
2022-11-16T15:35:43.617Z,11.94
2022-11-16T15:38:23.089Z,11.87
2022-11-16T15:41:00.446Z,11.53
2022-11-16T15:43:33.421Z,11.28
2022-11-16T15:46:00.694Z,11.66
2022-11-16T15:48:27.398Z,11.54
2022-11-16T15:51:12.014Z,11.22
2022-11-16T15:53:39.465Z,11.15
2022-11-16T15:56:09.245Z,11.33
2022-11-16T15:58:37.613Z,11.32
2022-11-16T16:01:04.343Z,11.01
2022-11-16T16:03:33.022Z,11.11
2022-11-16T16:06:00.308Z,10.99
2022-11-16T16:08:37.686Z,10.79
2022-11-16T16:11:12.305Z,10.77
2022-11-16T16:13:44.157Z,10.70
2022-11-16T16:16:36.130Z,10.63
2022-11-16T16:19:23.164Z,10.65
2022-11-16T16:21:49.866Z,10.64
2022-11-16T16:24:34.767Z,10.59
2022-11-16T16:27:01.382Z,10.70
2022-11-16T16:29:28.502Z,10.54
2022-11-16T16:31:58.078Z,10.30
2022-11-16T16:34:24.670Z,10.32
2022-11-16T16:36:51.302Z,10.27
2022-11-16T16:39:18.038Z,10.44
2022-11-16T16:41:44.702Z,10.49
2022-11-16T16:44:14.326Z,10.46
2022-11-16T16:46:40.889Z,10.37
2022-11-16T16:49:08.035Z,10.22
2022-11-16T16:51:34.756Z,10.04
2022-11-16T16:54:01.444Z,9.80
2022-11-16T16:56:28.057Z,9.56
2022-11-16T16:58:54.715Z,9.96
2022-11-16T17:01:21.462Z,10.12
2022-11-16T17:03:48.118Z,9.95
2022-11-16T17:06:14.832Z,10.10
2022-11-16T17:08:41.406Z,10.10
2022-11-16T17:11:09.021Z,10.08
2022-11-16T17:13:35.988Z,10.04
2022-11-16T17:16:06.092Z,10.03
2022-11-16T17:18:32.795Z,10.28
2022-11-16T17:21:06.082Z,10.10
2022-11-16T17:23:33.240Z,10.11
2022-11-16T17:26:06.441Z,10.15
2022-11-16T17:28:33.323Z,10.10
2022-11-16T17:31:04.046Z,10.14
2022-11-16T17:33:35.269Z,9.81
2022-11-16T17:36:03.840Z,9.82
2022-11-16T17:38:31.334Z,10.00
2022-11-16T17:41:08.214Z,10.17
2022-11-16T17:43:35.121Z,9.92
2022-11-16T17:46:05.940Z,9.71
2022-11-16T17:48:32.712Z,9.66
2022-11-16T17:50:59.390Z,9.77
2022-11-16T17:53:31.278Z,9.78
2022-11-16T17:55:59.337Z,9.82
2022-11-16T17:58:25.913Z,9.88
2022-11-16T18:00:52.642Z,9.70
2022-11-16T18:03:19.340Z,9.58
2022-11-16T18:05:45.927Z,9.57
2022-11-16T18:08:12.667Z,9.53
2022-11-16T18:10:39.371Z,9.50
2022-11-16T18:13:06.103Z,9.43
2022-11-16T18:15:41.953Z,9.41
2022-11-16T18:18:09.043Z,9.46
2022-11-16T18:20:36.328Z,9.55
2022-11-16T18:23:03.755Z,9.51
2022-11-16T18:25:30.679Z,9.59
2022-11-16T18:27:57.370Z,9.54
2022-11-16T18:30:24.115Z,9.49
2022-11-16T18:32:50.763Z,9.58
2022-11-16T18:35:17.615Z,9.82
2022-11-16T18:37:44.361Z,9.94
2022-11-16T18:40:12.128Z,9.84
2022-11-16T18:42:39.192Z,9.93
2022-11-16T18:45:06.449Z,9.72
2022-11-16T18:47:33.199Z,9.44
2022-11-16T18:49:59.851Z,9.56
2022-11-16T18:52:26.426Z,9.62
2022-11-16T18:54:53.142Z,9.53
2022-11-16T18:57:19.836Z,9.48
2022-11-16T18:59:46.535Z,9.44
2022-11-16T19:02:13.359Z,9.37
2022-11-16T19:04:40.419Z,9.39
2022-11-16T19:07:07.673Z,9.45
2022-11-16T19:09:34.478Z,9.43
2022-11-16T19:12:01.092Z,9.46
2022-11-16T19:14:27.748Z,9.49
2022-11-16T19:16:57.290Z,9.55
2022-11-16T19:19:25.361Z,9.68
2022-11-16T19:21:52.167Z,9.59
2022-11-16T19:24:18.834Z,9.67
2022-11-16T19:26:45.422Z,9.70
2022-11-16T19:29:12.072Z,9.52
2022-11-16T19:31:38.749Z,9.45
2022-11-16T19:34:11.599Z,9.76
2022-11-16T19:36:38.359Z,9.84
2022-11-16T19:39:05.188Z,9.88
2022-11-16T19:41:31.843Z,9.64
2022-11-16T19:43:59.939Z,9.63
2022-11-16T19:46:27.850Z,9.71
2022-11-16T19:48:54.839Z,9.56
2022-11-16T19:51:29.124Z,9.52
2022-11-16T19:53:55.869Z,9.48
2022-11-16T19:56:23.083Z,9.73
2022-11-16T19:58:49.910Z,9.71
2022-11-16T20:01:27.871Z,9.64
2022-11-16T20:03:56.073Z,9.48
2022-11-16T20:06:24.113Z,9.45
2022-11-16T20:08:55.981Z,9.65
2022-11-16T20:11:23.882Z,9.59
2022-11-16T20:13:51.780Z,9.56
2022-11-16T20:16:19.578Z,9.51
2022-11-16T20:18:46.568Z,9.53
2022-11-16T20:21:28.802Z,9.54
2022-11-16T20:24:04.688Z,9.58
2022-11-16T20:26:33.352Z,9.57
2022-11-16T20:29:00.036Z,9.71
2022-11-16T20:31:28.078Z,9.64
2022-11-16T20:34:01.981Z,9.73
2022-11-16T20:36:29.568Z,9.62
2022-11-16T20:38:56.670Z,9.40
2022-11-16T20:41:27.630Z,9.58
2022-11-16T20:43:56.013Z,9.70
2022-11-16T20:46:24.438Z,9.77
2022-11-16T20:48:51.171Z,9.70
2022-11-16T20:51:19.125Z,9.63
2022-11-16T20:53:46.552Z,9.46
2022-11-16T20:56:13.342Z,9.38
2022-11-16T20:58:40.141Z,9.39
2022-11-16T21:01:18.281Z,9.24
2022-11-16T21:03:45.113Z,9.27
2022-11-16T21:06:12.694Z,9.37
2022-11-16T21:08:39.418Z,9.38
2022-11-16T21:11:13.430Z,9.31
2022-11-16T21:13:58.731Z,9.38
2022-11-16T21:16:25.374Z,9.28
2022-11-16T21:18:53.594Z,9.39
2022-11-16T21:21:20.259Z,9.16
2022-11-16T21:23:51.459Z,9.29
2022-11-16T21:26:19.940Z,9.21
2022-11-16T21:28:46.610Z,8.94
2022-11-16T21:31:14.890Z,8.91
2022-11-16T21:33:41.558Z,9.17
2022-11-16T21:36:10.969Z,8.91
2022-11-16T21:38:37.770Z,8.83
2022-11-16T21:41:04.634Z,9.00
2022-11-16T21:43:33.946Z,9.28
2022-11-16T21:46:04.826Z,9.13
2022-11-16T21:48:33.146Z,8.99
2022-11-16T21:51:03.779Z,9.03
2022-11-16T21:53:30.624Z,9.23
2022-11-16T21:55:57.585Z,9.13
2022-11-16T21:58:24.317Z,9.16
2022-11-16T22:00:55.056Z,9.04
2022-11-16T22:03:25.390Z,9.08
2022-11-16T22:06:13.759Z,9.32
2022-11-16T22:08:40.577Z,9.35
2022-11-16T22:11:08.054Z,9.52
2022-11-16T22:13:35.493Z,9.53
2022-11-16T22:16:11.906Z,9.62
2022-11-16T22:18:38.635Z,9.28
2022-11-16T22:21:05.625Z,9.38
2022-11-16T22:23:32.550Z,9.12
2022-11-16T22:26:06.517Z,9.11
2022-11-16T22:28:33.259Z,9.19
2022-11-16T22:31:07.013Z,9.07
2022-11-16T22:33:34.342Z,9.05
2022-11-16T22:36:01.530Z,8.96
2022-11-16T22:38:28.137Z,8.89
2022-11-16T22:40:55.730Z,9.06
2022-11-16T22:43:24.233Z,9.15
2022-11-16T22:45:50.912Z,9.21
2022-11-16T22:48:17.609Z,9.00
2022-11-16T22:50:44.254Z,9.15
2022-11-16T22:53:10.909Z,9.20
2022-11-16T22:55:38.016Z,9.24
2022-11-16T22:58:05.475Z,9.14
2022-11-16T23:00:37.510Z,9.19
2022-11-16T23:03:07.561Z,9.18
2022-11-16T23:05:34.330Z,9.00
2022-11-16T23:08:00.973Z,8.85
2022-11-16T23:10:28.972Z,8.67
2022-11-16T23:13:14.184Z,8.69
2022-11-16T23:15:49.610Z,8.84
2022-11-16T23:18:16.593Z,8.88
2022-11-16T23:21:01.644Z,8.76
2022-11-16T23:23:46.937Z,8.95
2022-11-16T23:26:41.819Z,9.21
2022-11-16T23:29:08.917Z,9.01
2022-11-16T23:31:36.400Z,9.32
2022-11-16T23:34:03.120Z,9.34
2022-11-16T23:36:29.729Z,9.32
2022-11-16T23:38:56.367Z,9.08
2022-11-16T23:41:41.658Z,8.98
2022-11-16T23:44:08.245Z,8.90
2022-11-16T23:46:34.877Z,8.97
2022-11-16T23:49:02.166Z,8.82
2022-11-16T23:51:28.807Z,8.77
2022-11-16T23:53:55.903Z,8.84
2022-11-16T23:56:22.638Z,8.94
2022-11-16T23:58:49.321Z,9.59
